sensor_id;sensor_type;location;lat;lon;timestamp;P1;durP1;ratioP1;P2;durP2;ratioP2
20375;SDS011;10347;51.828;6.466;2022-07-19T00:00:47;4.47;;;2.22;;
20375;SDS011;10347;51.828;6.466;2022-07-19T00:03:13;2.42;;;2.22;;
20375;SDS011;10347;51.828;6.466;2022-07-19T00:05:39;3.50;;;2.10;;
20375;SDS011;10347;51.828;6.466;2022-07-19T00:08:05;2.20;;;2.00;;
20375;SDS011;10347;51.828;6.466;2022-07-19T00:10:31;2.60;;;2.08;;
20375;SDS011;10347;51.828;6.466;2022-07-19T00:12:56;2.28;;;2.08;;
20375;SDS011;10347;51.828;6.466;2022-07-19T00:15:22;2.83;;;2.25;;
20375;SDS011;10347;51.828;6.466;2022-07-19T00:17:48;2.38;;;2.17;;
20375;SDS011;10347;51.828;6.466;2022-07-19T00:20:15;2.20;;;2.00;;
20375;SDS011;10347;51.828;6.466;2022-07-19T00:22:42;2.25;;;2.08;;
20375;SDS011;10347;51.828;6.466;2022-07-19T00:25:08;3.90;;;1.92;;
20375;SDS011;10347;51.828;6.466;2022-07-19T00:27:35;1.88;;;1.77;;
20375;SDS011;10347;51.828;6.466;2022-07-19T00:30:03;2.70;;;2.20;;
20375;SDS011;10347;51.828;6.466;2022-07-19T00:32:30;1.63;;;1.52;;
20375;SDS011;10347;51.828;6.466;2022-07-19T00:34:55;2.30;;;2.20;;
20375;SDS011;10347;51.828;6.466;2022-07-19T00:37:21;2.60;;;2.40;;
20375;SDS011;10347;51.828;6.466;2022-07-19T00:39:46;2.72;;;2.15;;
20375;SDS011;10347;51.828;6.466;2022-07-19T00:42:12;2.20;;;2.00;;
20375;SDS011;10347;51.828;6.466;2022-07-19T00:44:39;4.35;;;2.20;;
20375;SDS011;10347;51.828;6.466;2022-07-19T00:47:05;2.60;;;2.40;;
20375;SDS011;10347;51.828;6.466;2022-07-19T00:49:31;2.58;;;2.20;;
20375;SDS011;10347;51.828;6.466;2022-07-19T00:51:57;4.40;;;2.40;;
20375;SDS011;10347;51.828;6.466;2022-07-19T00:54:24;5.55;;;2.90;;
20375;SDS011;10347;51.828;6.466;2022-07-19T00:56:50;2.70;;;2.50;;
20375;SDS011;10347;51.828;6.466;2022-07-19T00:59:16;2.97;;;2.20;;
20375;SDS011;10347;51.828;6.466;2022-07-19T01:01:43;2.50;;;2.30;;
20375;SDS011;10347;51.828;6.466;2022-07-19T01:04:10;3.20;;;2.80;;
20375;SDS011;10347;51.828;6.466;2022-07-19T01:06:36;4.05;;;2.50;;
20375;SDS011;10347;51.828;6.466;2022-07-19T01:09:03;2.58;;;2.08;;
20375;SDS011;10347;51.828;6.466;2022-07-19T01:11:29;3.20;;;2.42;;
20375;SDS011;10347;51.828;6.466;2022-07-19T01:13:55;2.38;;;2.28;;
20375;SDS011;10347;51.828;6.466;2022-07-19T01:16:21;2.50;;;2.17;;
20375;SDS011;10347;51.828;6.466;2022-07-19T01:18:47;4.95;;;2.40;;
20375;SDS011;10347;51.828;6.466;2022-07-19T01:21:18;2.35;;;2.15;;
20375;SDS011;10347;51.828;6.466;2022-07-19T01:23:48;2.63;;;2.42;;
20375;SDS011;10347;51.828;6.466;2022-07-19T01:26:14;4.35;;;2.70;;
20375;SDS011;10347;51.828;6.466;2022-07-19T01:28:40;2.80;;;2.47;;
20375;SDS011;10347;51.828;6.466;2022-07-19T01:31:06;3.88;;;2.33;;
20375;SDS011;10347;51.828;6.466;2022-07-19T01:33:31;3.47;;;2.70;;
20375;SDS011;10347;51.828;6.466;2022-07-19T01:35:57;2.90;;;2.70;;
20375;SDS011;10347;51.828;6.466;2022-07-19T01:38:22;4.50;;;2.72;;
20375;SDS011;10347;51.828;6.466;2022-07-19T01:40:48;5.40;;;2.38;;
20375;SDS011;10347;51.828;6.466;2022-07-19T01:43:13;3.05;;;2.80;;
20375;SDS011;10347;51.828;6.466;2022-07-19T01:45:39;3.90;;;2.80;;
20375;SDS011;10347;51.828;6.466;2022-07-19T01:48:05;4.60;;;2.75;;
20375;SDS011;10347;51.828;6.466;2022-07-19T01:50:30;3.40;;;2.42;;
20375;SDS011;10347;51.828;6.466;2022-07-19T01:52:56;3.47;;;3.10;;
20375;SDS011;10347;51.828;6.466;2022-07-19T01:55:21;3.75;;;2.90;;
20375;SDS011;10347;51.828;6.466;2022-07-19T01:57:48;3.20;;;2.60;;
20375;SDS011;10347;51.828;6.466;2022-07-19T02:00:14;3.35;;;2.40;;
20375;SDS011;10347;51.828;6.466;2022-07-19T02:02:40;2.50;;;2.30;;
20375;SDS011;10347;51.828;6.466;2022-07-19T02:05:06;2.70;;;2.50;;
20375;SDS011;10347;51.828;6.466;2022-07-19T02:07:32;4.07;;;2.72;;
20375;SDS011;10347;51.828;6.466;2022-07-19T02:09:58;2.90;;;2.60;;
20375;SDS011;10347;51.828;6.466;2022-07-19T02:12:23;2.63;;;2.42;;
20375;SDS011;10347;51.828;6.466;2022-07-19T02:14:49;3.50;;;2.80;;
20375;SDS011;10347;51.828;6.466;2022-07-19T02:17:15;2.85;;;2.60;;
20375;SDS011;10347;51.828;6.466;2022-07-19T02:19:40;3.00;;;2.70;;
20375;SDS011;10347;51.828;6.466;2022-07-19T02:22:06;2.60;;;2.40;;
20375;SDS011;10347;51.828;6.466;2022-07-19T02:24:31;2.65;;;2.42;;
20375;SDS011;10347;51.828;6.466;2022-07-19T02:26:57;3.15;;;2.55;;
20375;SDS011;10347;51.828;6.466;2022-07-19T02:29:22;4.78;;;2.60;;
20375;SDS011;10347;51.828;6.466;2022-07-19T02:31:48;2.60;;;2.38;;
20375;SDS011;10347;51.828;6.466;2022-07-19T02:34:13;4.60;;;2.70;;
20375;SDS011;10347;51.828;6.466;2022-07-19T02:36:39;4.45;;;2.85;;
20375;SDS011;10347;51.828;6.466;2022-07-19T02:39:05;5.78;;;2.53;;
20375;SDS011;10347;51.828;6.466;2022-07-19T02:41:30;2.85;;;2.60;;
20375;SDS011;10347;51.828;6.466;2022-07-19T02:43:56;3.45;;;2.72;;
20375;SDS011;10347;51.828;6.466;2022-07-19T02:46:22;3.92;;;2.83;;
20375;SDS011;10347;51.828;6.466;2022-07-19T02:48:48;3.60;;;3.05;;
20375;SDS011;10347;51.828;6.466;2022-07-19T02:51:13;3.22;;;2.92;;
20375;SDS011;10347;51.828;6.466;2022-07-19T02:53:39;4.68;;;3.17;;
20375;SDS011;10347;51.828;6.466;2022-07-19T02:56:05;3.53;;;2.50;;
20375;SDS011;10347;51.828;6.466;2022-07-19T02:58:30;4.45;;;2.95;;
20375;SDS011;10347;51.828;6.466;2022-07-19T03:00:56;2.83;;;2.55;;
20375;SDS011;10347;51.828;6.466;2022-07-19T03:03:22;4.32;;;2.72;;
20375;SDS011;10347;51.828;6.466;2022-07-19T03:06:06;2.80;;;2.60;;
20375;SDS011;10347;51.828;6.466;2022-07-19T03:08:32;3.15;;;2.72;;
20375;SDS011;10347;51.828;6.466;2022-07-19T03:10:57;2.63;;;2.42;;
20375;SDS011;10347;51.828;6.466;2022-07-19T03:13:23;2.92;;;2.72;;
20375;SDS011;10347;51.828;6.466;2022-07-19T03:15:48;4.32;;;3.25;;
20375;SDS011;10347;51.828;6.466;2022-07-19T03:18:14;3.10;;;2.65;;
20375;SDS011;10347;51.828;6.466;2022-07-19T03:20:39;3.45;;;2.40;;
20375;SDS011;10347;51.828;6.466;2022-07-19T03:23:05;3.83;;;2.15;;
20375;SDS011;10347;51.828;6.466;2022-07-19T03:25:31;5.32;;;2.65;;
20375;SDS011;10347;51.828;6.466;2022-07-19T03:27:56;3.38;;;2.40;;
20375;SDS011;10347;51.828;6.466;2022-07-19T03:30:22;3.17;;;2.60;;
20375;SDS011;10347;51.828;6.466;2022-07-19T03:32:48;4.53;;;2.83;;
20375;SDS011;10347;51.828;6.466;2022-07-19T03:35:13;3.53;;;2.53;;
20375;SDS011;10347;51.828;6.466;2022-07-19T03:37:39;2.97;;;2.75;;
20375;SDS011;10347;51.828;6.466;2022-07-19T03:40:05;4.93;;;2.60;;
20375;SDS011;10347;51.828;6.466;2022-07-19T03:42:31;6.75;;;2.63;;
20375;SDS011;10347;51.828;6.466;2022-07-19T03:44:56;2.70;;;2.50;;
20375;SDS011;10347;51.828;6.466;2022-07-19T03:47:22;7.35;;;3.08;;
20375;SDS011;10347;51.828;6.466;2022-07-19T03:49:47;4.65;;;3.08;;
20375;SDS011;10347;51.828;6.466;2022-07-19T03:52:13;3.75;;;2.90;;
20375;SDS011;10347;51.828;6.466;2022-07-19T03:54:39;3.28;;;2.70;;
20375;SDS011;10347;51.828;6.466;2022-07-19T03:57:05;3.13;;;2.92;;
20375;SDS011;10347;51.828;6.466;2022-07-19T03:59:30;3.53;;;2.75;;
20375;SDS011;10347;51.828;6.466;2022-07-19T04:01:56;2.83;;;2.58;;
20375;SDS011;10347;51.828;6.466;2022-07-19T04:04:22;2.63;;;2.42;;
20375;SDS011;10347;51.828;6.466;2022-07-19T04:06:47;4.07;;;2.53;;
20375;SDS011;10347;51.828;6.466;2022-07-19T04:09:13;2.80;;;2.55;;
20375;SDS011;10347;51.828;6.466;2022-07-19T04:11:38;3.08;;;2.80;;
20375;SDS011;10347;51.828;6.466;2022-07-19T04:14:04;5.30;;;2.75;;
20375;SDS011;10347;51.828;6.466;2022-07-19T04:16:29;3.15;;;2.80;;
20375;SDS011;10347;51.828;6.466;2022-07-19T04:18:55;2.80;;;2.60;;
20375;SDS011;10347;51.828;6.466;2022-07-19T04:21:21;4.40;;;2.90;;
20375;SDS011;10347;51.828;6.466;2022-07-19T04:23:46;4.20;;;2.40;;
20375;SDS011;10347;51.828;6.466;2022-07-19T04:26:12;2.88;;;2.67;;
20375;SDS011;10347;51.828;6.466;2022-07-19T04:28:38;3.45;;;2.83;;
20375;SDS011;10347;51.828;6.466;2022-07-19T04:31:03;3.05;;;2.40;;
20375;SDS011;10347;51.828;6.466;2022-07-19T04:33:29;3.10;;;2.90;;
20375;SDS011;10347;51.828;6.466;2022-07-19T04:35:54;2.83;;;2.60;;
20375;SDS011;10347;51.828;6.466;2022-07-19T04:38:20;2.88;;;2.63;;
20375;SDS011;10347;51.828;6.466;2022-07-19T04:40:46;3.97;;;2.72;;
20375;SDS011;10347;51.828;6.466;2022-07-19T04:43:13;2.85;;;2.65;;
20375;SDS011;10347;51.828;6.466;2022-07-19T04:45:38;2.65;;;2.45;;
20375;SDS011;10347;51.828;6.466;2022-07-19T04:48:09;2.88;;;2.67;;
20375;SDS011;10347;51.828;6.466;2022-07-19T04:50:35;3.03;;;2.75;;
20375;SDS011;10347;51.828;6.466;2022-07-19T04:53:00;3.05;;;2.75;;
20375;SDS011;10347;51.828;6.466;2022-07-19T04:55:26;3.35;;;3.05;;
20375;SDS011;10347;51.828;6.466;2022-07-19T04:57:52;3.17;;;2.88;;
20375;SDS011;10347;51.828;6.466;2022-07-19T05:00:17;3.00;;;2.80;;
20375;SDS011;10347;51.828;6.466;2022-07-19T05:02:43;3.20;;;2.92;;
20375;SDS011;10347;51.828;6.466;2022-07-19T05:05:09;3.30;;;3.00;;
20375;SDS011;10347;51.828;6.466;2022-07-19T05:07:35;3.05;;;2.75;;
20375;SDS011;10347;51.828;6.466;2022-07-19T05:10:01;3.72;;;2.72;;
20375;SDS011;10347;51.828;6.466;2022-07-19T05:12:28;3.55;;;3.20;;
20375;SDS011;10347;51.828;6.466;2022-07-19T05:14:54;3.35;;;3.05;;
20375;SDS011;10347;51.828;6.466;2022-07-19T05:17:19;4.95;;;3.55;;
20375;SDS011;10347;51.828;6.466;2022-07-19T05:19:46;3.47;;;3.17;;
20375;SDS011;10347;51.828;6.466;2022-07-19T05:22:11;3.60;;;3.30;;
20375;SDS011;10347;51.828;6.466;2022-07-19T05:24:37;4.18;;;3.38;;
20375;SDS011;10347;51.828;6.466;2022-07-19T05:27:02;5.95;;;3.22;;
20375;SDS011;10347;51.828;6.466;2022-07-19T05:29:28;6.35;;;3.88;;
20375;SDS011;10347;51.828;6.466;2022-07-19T05:31:54;3.95;;;3.60;;
20375;SDS011;10347;51.828;6.466;2022-07-19T05:34:19;3.83;;;3.42;;
20375;SDS011;10347;51.828;6.466;2022-07-19T05:36:45;3.75;;;3.05;;
20375;SDS011;10347;51.828;6.466;2022-07-19T05:39:10;3.85;;;3.10;;
20375;SDS011;10347;51.828;6.466;2022-07-19T05:41:36;4.00;;;3.20;;
20375;SDS011;10347;51.828;6.466;2022-07-19T05:44:01;3.92;;;3.42;;
20375;SDS011;10347;51.828;6.466;2022-07-19T05:46:27;3.45;;;3.08;;
20375;SDS011;10347;51.828;6.466;2022-07-19T05:48:53;4.35;;;3.17;;
20375;SDS011;10347;51.828;6.466;2022-07-19T05:51:18;5.68;;;3.47;;
20375;SDS011;10347;51.828;6.466;2022-07-19T05:53:44;8.23;;;3.83;;
20375;SDS011;10347;51.828;6.466;2022-07-19T05:56:10;4.70;;;3.63;;
20375;SDS011;10347;51.828;6.466;2022-07-19T05:58:35;4.15;;;3.25;;
20375;SDS011;10347;51.828;6.466;2022-07-19T06:01:02;5.13;;;3.95;;
20375;SDS011;10347;51.828;6.466;2022-07-19T06:03:47;3.35;;;3.05;;
20375;SDS011;10347;51.828;6.466;2022-07-19T06:06:16;3.25;;;2.95;;
20375;SDS011;10347;51.828;6.466;2022-07-19T06:08:42;3.92;;;3.42;;
20375;SDS011;10347;51.828;6.466;2022-07-19T06:11:09;4.53;;;3.28;;
20375;SDS011;10347;51.828;6.466;2022-07-19T06:13:35;3.58;;;2.90;;
20375;SDS011;10347;51.828;6.466;2022-07-19T06:16:01;3.30;;;3.00;;
20375;SDS011;10347;51.828;6.466;2022-07-19T06:18:27;3.45;;;3.15;;
20375;SDS011;10347;51.828;6.466;2022-07-19T06:20:59;3.35;;;2.85;;
20375;SDS011;10347;51.828;6.466;2022-07-19T06:23:32;3.47;;;2.85;;
20375;SDS011;10347;51.828;6.466;2022-07-19T06:25:57;3.78;;;3.03;;
20375;SDS011;10347;51.828;6.466;2022-07-19T06:28:23;6.43;;;3.22;;
20375;SDS011;10347;51.828;6.466;2022-07-19T06:30:50;5.60;;;3.22;;
20375;SDS011;10347;51.828;6.466;2022-07-19T06:33:16;6.10;;;3.13;;
20375;SDS011;10347;51.828;6.466;2022-07-19T06:35:41;3.83;;;2.80;;
20375;SDS011;10347;51.828;6.466;2022-07-19T06:38:07;5.07;;;3.25;;
20375;SDS011;10347;51.828;6.466;2022-07-19T06:40:33;2.90;;;2.60;;
20375;SDS011;10347;51.828;6.466;2022-07-19T06:42:59;5.28;;;2.85;;
20375;SDS011;10347;51.828;6.466;2022-07-19T06:45:24;3.83;;;2.63;;
20375;SDS011;10347;51.828;6.466;2022-07-19T06:47:50;4.60;;;2.78;;
20375;SDS011;10347;51.828;6.466;2022-07-19T06:50:16;4.03;;;2.17;;
20375;SDS011;10347;51.828;6.466;2022-07-19T06:52:42;3.45;;;2.17;;
20375;SDS011;10347;51.828;6.466;2022-07-19T06:55:08;2.42;;;2.22;;
20375;SDS011;10347;51.828;6.466;2022-07-19T06:57:33;5.10;;;2.40;;
20375;SDS011;10347;51.828;6.466;2022-07-19T06:59:59;4.20;;;2.50;;
20375;SDS011;10347;51.828;6.466;2022-07-19T07:02:25;2.15;;;1.90;;
20375;SDS011;10347;51.828;6.466;2022-07-19T07:04:50;2.30;;;1.90;;
20375;SDS011;10347;51.828;6.466;2022-07-19T07:07:16;2.45;;;1.92;;
20375;SDS011;10347;51.828;6.466;2022-07-19T07:09:41;2.42;;;2.10;;
20375;SDS011;10347;51.828;6.466;2022-07-19T07:12:07;2.35;;;2.03;;
20375;SDS011;10347;51.828;6.466;2022-07-19T07:14:33;3.53;;;2.20;;
20375;SDS011;10347;51.828;6.466;2022-07-19T07:17:00;4.88;;;2.00;;
20375;SDS011;10347;51.828;6.466;2022-07-19T07:19:25;3.63;;;1.95;;
20375;SDS011;10347;51.828;6.466;2022-07-19T07:21:51;2.35;;;2.10;;
20375;SDS011;10347;51.828;6.466;2022-07-19T07:24:17;2.35;;;2.00;;
20375;SDS011;10347;51.828;6.466;2022-07-19T07:26:43;3.72;;;2.30;;
20375;SDS011;10347;51.828;6.466;2022-07-19T07:29:08;3.08;;;2.08;;
20375;SDS011;10347;51.828;6.466;2022-07-19T07:31:34;3.03;;;2.20;;
20375;SDS011;10347;51.828;6.466;2022-07-19T07:34:01;2.33;;;1.80;;
20375;SDS011;10347;51.828;6.466;2022-07-19T07:36:27;3.83;;;2.30;;
20375;SDS011;10347;51.828;6.466;2022-07-19T07:38:53;4.10;;;2.10;;
20375;SDS011;10347;51.828;6.466;2022-07-19T07:41:19;2.30;;;2.10;;
20375;SDS011;10347;51.828;6.466;2022-07-19T07:43:44;2.17;;;1.83;;
20375;SDS011;10347;51.828;6.466;2022-07-19T07:46:10;2.83;;;2.10;;
20375;SDS011;10347;51.828;6.466;2022-07-19T07:48:35;7.97;;;2.40;;
20375;SDS011;10347;51.828;6.466;2022-07-19T07:51:01;4.65;;;2.00;;
20375;SDS011;10347;51.828;6.466;2022-07-19T07:53:27;3.65;;;2.00;;
20375;SDS011;10347;51.828;6.466;2022-07-19T07:55:52;3.58;;;2.30;;
20375;SDS011;10347;51.828;6.466;2022-07-19T07:58:18;3.25;;;2.25;;
20375;SDS011;10347;51.828;6.466;2022-07-19T08:00:43;3.08;;;2.13;;
20375;SDS011;10347;51.828;6.466;2022-07-19T08:03:09;5.90;;;2.35;;
20375;SDS011;10347;51.828;6.466;2022-07-19T08:05:35;3.78;;;2.45;;
20375;SDS011;10347;51.828;6.466;2022-07-19T08:08:01;2.65;;;1.90;;
20375;SDS011;10347;51.828;6.466;2022-07-19T08:10:28;2.50;;;1.50;;
20375;SDS011;10347;51.828;6.466;2022-07-19T08:12:57;3.13;;;1.98;;
20375;SDS011;10347;51.828;6.466;2022-07-19T08:15:22;5.22;;;2.13;;
20375;SDS011;10347;51.828;6.466;2022-07-19T08:17:48;6.88;;;2.17;;
20375;SDS011;10347;51.828;6.466;2022-07-19T08:20:14;3.17;;;2.35;;
20375;SDS011;10347;51.828;6.466;2022-07-19T08:22:40;3.30;;;2.10;;
20375;SDS011;10347;51.828;6.466;2022-07-19T08:25:06;3.95;;;1.90;;
20375;SDS011;10347;51.828;6.466;2022-07-19T08:27:32;11.65;;;2.08;;
20375;SDS011;10347;51.828;6.466;2022-07-19T08:29:58;4.50;;;2.25;;
20375;SDS011;10347;51.828;6.466;2022-07-19T08:32:24;4.43;;;2.20;;
20375;SDS011;10347;51.828;6.466;2022-07-19T08:34:50;6.82;;;2.30;;
20375;SDS011;10347;51.828;6.466;2022-07-19T08:37:15;3.20;;;2.20;;
20375;SDS011;10347;51.828;6.466;2022-07-19T08:39:41;5.45;;;2.15;;
20375;SDS011;10347;51.828;6.466;2022-07-19T08:42:06;3.85;;;2.05;;
20375;SDS011;10347;51.828;6.466;2022-07-19T08:44:33;4.47;;;2.55;;
20375;SDS011;10347;51.828;6.466;2022-07-19T08:47:00;5.90;;;2.30;;
20375;SDS011;10347;51.828;6.466;2022-07-19T08:49:26;3.78;;;2.30;;
20375;SDS011;10347;51.828;6.466;2022-07-19T08:51:52;9.02;;;2.30;;
20375;SDS011;10347;51.828;6.466;2022-07-19T08:54:18;2.15;;;1.92;;
20375;SDS011;10347;51.828;6.466;2022-07-19T08:56:44;4.78;;;2.20;;
20375;SDS011;10347;51.828;6.466;2022-07-19T08:59:28;5.60;;;2.05;;
20375;SDS011;10347;51.828;6.466;2022-07-19T09:01:56;9.23;;;2.40;;
20375;SDS011;10347;51.828;6.466;2022-07-19T09:04:21;2.45;;;2.00;;
20375;SDS011;10347;51.828;6.466;2022-07-19T09:06:54;7.22;;;2.28;;
20375;SDS011;10347;51.828;6.466;2022-07-19T09:09:21;2.85;;;2.08;;
20375;SDS011;10347;51.828;6.466;2022-07-19T09:11:50;3.50;;;2.30;;
20375;SDS011;10347;51.828;6.466;2022-07-19T09:14:18;6.68;;;2.05;;
20375;SDS011;10347;51.828;6.466;2022-07-19T09:16:47;3.83;;;2.15;;
20375;SDS011;10347;51.828;6.466;2022-07-19T09:19:32;6.85;;;2.20;;
20375;SDS011;10347;51.828;6.466;2022-07-19T09:22:06;2.90;;;1.92;;
20375;SDS011;10347;51.828;6.466;2022-07-19T09:24:34;5.90;;;1.85;;
20375;SDS011;10347;51.828;6.466;2022-07-19T09:27:18;7.38;;;2.50;;
20375;SDS011;10347;51.828;6.466;2022-07-19T09:29:46;4.78;;;2.00;;
20375;SDS011;10347;51.828;6.466;2022-07-19T09:32:17;3.10;;;2.00;;
20375;SDS011;10347;51.828;6.466;2022-07-19T09:39:51;5.63;;;2.25;;
20375;SDS011;10347;51.828;6.466;2022-07-19T09:42:22;1.92;;;1.70;;
20375;SDS011;10347;51.828;6.466;2022-07-19T09:44:59;3.10;;;2.13;;
20375;SDS011;10347;51.828;6.466;2022-07-19T09:47:34;5.05;;;2.00;;
20375;SDS011;10347;51.828;6.466;2022-07-19T09:50:08;4.93;;;2.00;;
20375;SDS011;10347;51.828;6.466;2022-07-19T09:52:35;4.70;;;1.98;;
20375;SDS011;10347;51.828;6.466;2022-07-19T09:55:02;6.63;;;2.67;;
20375;SDS011;10347;51.828;6.466;2022-07-19T09:57:32;5.10;;;2.47;;
20375;SDS011;10347;51.828;6.466;2022-07-19T10:00:01;6.03;;;2.45;;
20375;SDS011;10347;51.828;6.466;2022-07-19T10:02:30;6.85;;;2.80;;
20375;SDS011;10347;51.828;6.466;2022-07-19T10:05:03;4.93;;;2.22;;
20375;SDS011;10347;51.828;6.466;2022-07-19T10:07:30;6.50;;;2.13;;
20375;SDS011;10347;51.828;6.466;2022-07-19T10:09:57;7.28;;;2.40;;
20375;SDS011;10347;51.828;6.466;2022-07-19T10:12:29;3.08;;;2.22;;
20375;SDS011;10347;51.828;6.466;2022-07-19T10:14:55;7.45;;;2.83;;
20375;SDS011;10347;51.828;6.466;2022-07-19T10:20:15;6.35;;;2.00;;
20375;SDS011;10347;51.828;6.466;2022-07-19T10:22:44;5.28;;;1.90;;
20375;SDS011;10347;51.828;6.466;2022-07-19T10:27:39;7.97;;;3.47;;
20375;SDS011;10347;51.828;6.466;2022-07-19T10:32:32;4.22;;;2.30;;
20375;SDS011;10347;51.828;6.466;2022-07-19T10:37:43;5.13;;;2.25;;
20375;SDS011;10347;51.828;6.466;2022-07-19T10:40:10;6.03;;;2.20;;
20375;SDS011;10347;51.828;6.466;2022-07-19T10:42:36;8.20;;;2.25;;
20375;SDS011;10347;51.828;6.466;2022-07-19T10:45:22;3.95;;;2.17;;
20375;SDS011;10347;51.828;6.466;2022-07-19T10:50:13;2.13;;;1.90;;
20375;SDS011;10347;51.828;6.466;2022-07-19T10:52:44;2.80;;;1.73;;
20375;SDS011;10347;51.828;6.466;2022-07-19T10:57:53;3.63;;;1.40;;
20375;SDS011;10347;51.828;6.466;2022-07-19T11:00:40;5.72;;;2.00;;
20375;SDS011;10347;51.828;6.466;2022-07-19T11:05:53;2.08;;;1.70;;
20375;SDS011;10347;51.828;6.466;2022-07-19T11:08:33;1.60;;;1.50;;
20375;SDS011;10347;51.828;6.466;2022-07-19T11:13:32;2.53;;;1.60;;
20375;SDS011;10347;51.828;6.466;2022-07-19T11:15:58;4.45;;;1.92;;
20375;SDS011;10347;51.828;6.466;2022-07-19T11:18:30;2.45;;;1.58;;
20375;SDS011;10347;51.828;6.466;2022-07-19T11:20:57;1.83;;;1.40;;
20375;SDS011;10347;51.828;6.466;2022-07-19T11:23:24;4.07;;;1.70;;
20375;SDS011;10347;51.828;6.466;2022-07-19T11:26:04;3.08;;;1.60;;
20375;SDS011;10347;51.828;6.466;2022-07-19T11:28:33;1.70;;;1.38;;
20375;SDS011;10347;51.828;6.466;2022-07-19T11:31:00;1.70;;;1.50;;
20375;SDS011;10347;51.828;6.466;2022-07-19T11:33:27;4.38;;;1.35;;
20375;SDS011;10347;51.828;6.466;2022-07-19T11:35:56;2.60;;;1.50;;
20375;SDS011;10347;51.828;6.466;2022-07-19T11:38:23;3.53;;;1.60;;
20375;SDS011;10347;51.828;6.466;2022-07-19T11:40:58;3.25;;;1.58;;
20375;SDS011;10347;51.828;6.466;2022-07-19T11:43:24;1.50;;;1.35;;
20375;SDS011;10347;51.828;6.466;2022-07-19T11:45:49;2.75;;;1.30;;
20375;SDS011;10347;51.828;6.466;2022-07-19T11:48:27;2.47;;;1.50;;
20375;SDS011;10347;51.828;6.466;2022-07-19T11:51:12;1.40;;;1.30;;
20375;SDS011;10347;51.828;6.466;2022-07-19T11:53:39;1.35;;;1.15;;
20375;SDS011;10347;51.828;6.466;2022-07-19T11:56:06;1.63;;;1.45;;
20375;SDS011;10347;51.828;6.466;2022-07-19T11:58:42;2.03;;;1.30;;
20375;SDS011;10347;51.828;6.466;2022-07-19T12:01:08;1.38;;;1.27;;
20375;SDS011;10347;51.828;6.466;2022-07-19T12:03:34;1.15;;;1.08;;
20375;SDS011;10347;51.828;6.466;2022-07-19T12:06:05;3.35;;;1.30;;
20375;SDS011;10347;51.828;6.466;2022-07-19T12:08:34;4.95;;;1.50;;
20375;SDS011;10347;51.828;6.466;2022-07-19T12:11:14;2.78;;;1.38;;
20375;SDS011;10347;51.828;6.466;2022-07-19T12:13:52;1.52;;;1.17;;
20375;SDS011;10347;51.828;6.466;2022-07-19T12:16:19;1.33;;;1.23;;
20375;SDS011;10347;51.828;6.466;2022-07-19T12:18:53;1.50;;;1.40;;
20375;SDS011;10347;51.828;6.466;2022-07-19T12:24:13;1.92;;;1.30;;
20375;SDS011;10347;51.828;6.466;2022-07-19T12:29:29;1.77;;;1.30;;
20375;SDS011;10347;51.828;6.466;2022-07-19T12:32:04;3.67;;;1.85;;
20375;SDS011;10347;51.828;6.466;2022-07-19T12:34:55;2.25;;;1.92;;
20375;SDS011;10347;51.828;6.466;2022-07-19T12:37:35;3.80;;;2.05;;
20375;SDS011;10347;51.828;6.466;2022-07-19T12:42:45;1.50;;;1.40;;
20375;SDS011;10347;51.828;6.466;2022-07-19T12:45:13;2.13;;;1.75;;
20375;SDS011;10347;51.828;6.466;2022-07-19T12:47:41;4.38;;;2.05;;
20375;SDS011;10347;51.828;6.466;2022-07-19T12:50:07;7.05;;;1.80;;
20375;SDS011;10347;51.828;6.466;2022-07-19T12:52:42;1.58;;;1.50;;
20375;SDS011;10347;51.828;6.466;2022-07-19T12:55:08;2.25;;;1.50;;
20375;SDS011;10347;51.828;6.466;2022-07-19T12:57:34;1.50;;;1.40;;
20375;SDS011;10347;51.828;6.466;2022-07-19T12:59:59;3.35;;;1.67;;
20375;SDS011;10347;51.828;6.466;2022-07-19T13:02:25;1.85;;;1.60;;
20375;SDS011;10347;51.828;6.466;2022-07-19T13:04:50;5.30;;;2.10;;
20375;SDS011;10347;51.828;6.466;2022-07-19T13:07:16;1.60;;;1.50;;
20375;SDS011;10347;51.828;6.466;2022-07-19T13:09:42;4.32;;;2.10;;
20375;SDS011;10347;51.828;6.466;2022-07-19T13:12:07;4.65;;;2.13;;
20375;SDS011;10347;51.828;6.466;2022-07-19T13:14:34;2.20;;;1.80;;
20375;SDS011;10347;51.828;6.466;2022-07-19T13:17:00;2.15;;;1.70;;
20375;SDS011;10347;51.828;6.466;2022-07-19T13:19:26;2.83;;;2.08;;
20375;SDS011;10347;51.828;6.466;2022-07-19T13:21:52;2.45;;;1.48;;
20375;SDS011;10347;51.828;6.466;2022-07-19T13:24:18;2.20;;;1.30;;
20375;SDS011;10347;51.828;6.466;2022-07-19T13:26:44;4.47;;;2.20;;
20375;SDS011;10347;51.828;6.466;2022-07-19T13:29:09;2.83;;;2.13;;
20375;SDS011;10347;51.828;6.466;2022-07-19T13:31:35;4.28;;;1.80;;
20375;SDS011;10347;51.828;6.466;2022-07-19T13:34:01;2.60;;;1.98;;
20375;SDS011;10347;51.828;6.466;2022-07-19T13:36:28;1.95;;;1.63;;
20375;SDS011;10347;51.828;6.466;2022-07-19T13:38:53;2.13;;;1.55;;
20375;SDS011;10347;51.828;6.466;2022-07-19T13:41:19;1.50;;;1.40;;
20375;SDS011;10347;51.828;6.466;2022-07-19T13:43:45;1.58;;;1.40;;
20375;SDS011;10347;51.828;6.466;2022-07-19T13:46:11;2.25;;;1.30;;
20375;SDS011;10347;51.828;6.466;2022-07-19T13:48:40;2.28;;;1.58;;
20375;SDS011;10347;51.828;6.466;2022-07-19T13:51:06;1.27;;;1.17;;
20375;SDS011;10347;51.828;6.466;2022-07-19T13:53:32;1.98;;;1.40;;
20375;SDS011;10347;51.828;6.466;2022-07-19T13:55:59;3.38;;;1.50;;
20375;SDS011;10347;51.828;6.466;2022-07-19T13:58:24;2.22;;;1.40;;
20375;SDS011;10347;51.828;6.466;2022-07-19T14:00:50;2.03;;;1.45;;
20375;SDS011;10347;51.828;6.466;2022-07-19T14:03:16;2.00;;;1.30;;
20375;SDS011;10347;51.828;6.466;2022-07-19T14:05:45;2.05;;;1.17;;
20375;SDS011;10347;51.828;6.466;2022-07-19T14:08:11;1.83;;;1.40;;
20375;SDS011;10347;51.828;6.466;2022-07-19T14:10:37;1.30;;;1.20;;
20375;SDS011;10347;51.828;6.466;2022-07-19T14:13:03;1.77;;;1.40;;
20375;SDS011;10347;51.828;6.466;2022-07-19T14:15:29;2.67;;;1.58;;
20375;SDS011;10347;51.828;6.466;2022-07-19T14:17:56;2.53;;;1.55;;
20375;SDS011;10347;51.828;6.466;2022-07-19T14:20:22;3.47;;;1.42;;
20375;SDS011;10347;51.828;6.466;2022-07-19T14:22:48;1.88;;;1.25;;
20375;SDS011;10347;51.828;6.466;2022-07-19T14:25:14;2.08;;;1.13;;
20375;SDS011;10347;51.828;6.466;2022-07-19T14:27:40;1.08;;;1.05;;
20375;SDS011;10347;51.828;6.466;2022-07-19T14:30:06;1.45;;;1.38;;
20375;SDS011;10347;51.828;6.466;2022-07-19T14:32:32;1.35;;;1.20;;
20375;SDS011;10347;51.828;6.466;2022-07-19T14:34:58;2.60;;;1.35;;
20375;SDS011;10347;51.828;6.466;2022-07-19T14:37:23;1.48;;;1.30;;
20375;SDS011;10347;51.828;6.466;2022-07-19T14:39:49;1.58;;;1.48;;
20375;SDS011;10347;51.828;6.466;2022-07-19T14:42:14;3.97;;;1.40;;
20375;SDS011;10347;51.828;6.466;2022-07-19T14:44:40;3.47;;;1.35;;
20375;SDS011;10347;51.828;6.466;2022-07-19T14:47:06;1.52;;;1.40;;
20375;SDS011;10347;51.828;6.466;2022-07-19T14:49:33;1.52;;;1.42;;
20375;SDS011;10347;51.828;6.466;2022-07-19T14:51:59;1.48;;;1.17;;
20375;SDS011;10347;51.828;6.466;2022-07-19T14:54:25;1.42;;;1.33;;
20375;SDS011;10347;51.828;6.466;2022-07-19T14:56:51;2.97;;;1.58;;
20375;SDS011;10347;51.828;6.466;2022-07-19T14:59:18;2.35;;;1.10;;
20375;SDS011;10347;51.828;6.466;2022-07-19T15:01:45;3.65;;;1.45;;
20375;SDS011;10347;51.828;6.466;2022-07-19T15:04:10;1.42;;;1.33;;
20375;SDS011;10347;51.828;6.466;2022-07-19T15:06:36;3.28;;;1.58;;
20375;SDS011;10347;51.828;6.466;2022-07-19T15:09:02;3.45;;;1.63;;
20375;SDS011;10347;51.828;6.466;2022-07-19T15:11:28;1.45;;;1.35;;
20375;SDS011;10347;51.828;6.466;2022-07-19T15:13:57;2.22;;;1.55;;
20375;SDS011;10347;51.828;6.466;2022-07-19T15:16:23;2.88;;;1.48;;
20375;SDS011;10347;51.828;6.466;2022-07-19T15:18:49;2.15;;;1.50;;
20375;SDS011;10347;51.828;6.466;2022-07-19T15:21:14;1.85;;;1.50;;